Time;durP1;ratioP1;P1;durP2;ratioP2;P2;SDS_P1;SDS_P2;PMS_P1;PMS_P2;Temp;Humidity;BMP_temperature;BMP_pressure;BME280_temperature;BME280_humidity;BME280_pressure;Samples;Min_cycle;Max_cycle;Signal;HPM_P1;HPM_P2
2022/07/11 00:02:19;;;;;;;5.33;2.50;;;;;;;;;;5070230;28;20779;-75
2022/07/11 00:04:46;;;;;;;3.83;2.20;;;;;;;;;;5071253;28;20440;-78
2022/07/11 00:07:13;;;;;;;3.60;2.80;;;;;;;;;;5072194;28;20808;-76
2022/07/11 00:09:41;;;;;;;3.47;2.67;;;;;;;;;;5071280;28;20948;-77
2022/07/11 00:12:09;;;;;;;5.73;3.27;;;;;;;;;;5072317;28;20453;-77
2022/07/11 00:14:39;;;;;;;6.87;2.73;;;;;;;;;;5074084;28;20443;-76
2022/07/11 00:17:07;;;;;;;5.10;2.83;;;;;;;;;;5072974;28;20553;-77
2022/07/11 00:19:36;;;;;;;6.33;2.63;;;;;;;;;;5059688;28;21011;-76
2022/07/11 00:22:03;;;;;;;4.87;2.90;;;;;;;;;;5061413;28;20443;-75
2022/07/11 00:24:31;;;;;;;4.93;2.90;;;;;;;;;;5071181;28;20419;-76
2022/07/11 00:26:58;;;;;;;3.60;2.53;;;;;;;;;;5071076;28;20466;-76
2022/07/11 00:29:26;;;;;;;3.87;2.80;;;;;;;;;;5070533;28;20531;-77
2022/07/11 00:31:53;;;;;;;4.80;3.07;;;;;;;;;;5072144;28;20436;-75
2022/07/11 00:34:21;;;;;;;5.13;2.57;;;;;;;;;;5071741;28;20554;-75
2022/07/11 00:36:49;;;;;;;4.07;2.90;;;;;;;;;;5073270;28;20568;-75
2022/07/11 00:39:16;;;;;;;4.43;2.87;;;;;;;;;;5073886;28;20801;-76
2022/07/11 00:41:44;;;;;;;6.03;3.03;;;;;;;;;;5061115;28;20455;-76
2022/07/11 00:44:11;;;;;;;6.97;3.43;;;;;;;;;;5059969;28;20795;-76
2022/07/11 00:46:38;;;;;;;4.43;2.90;;;;;;;;;;5051184;28;20467;-75
2022/07/11 00:49:05;;;;;;;8.50;3.33;;;;;;;;;;5050549;28;20440;-76
2022/07/11 00:51:33;;;;;;;5.23;3.10;;;;;;;;;;5051586;28;20870;-75
2022/07/11 00:54:01;;;;;;;6.50;3.40;;;;;;;;;;5052102;28;20423;-74
2022/07/11 00:56:30;;;;;;;4.50;2.90;;;;;;;;;;5054163;28;20439;-75
2022/07/11 00:58:58;;;;;;;5.00;2.60;;;;;;;;;;5073372;28;20494;-77
2022/07/11 01:01:25;;;;;;;4.30;2.93;;;;;;;;;;5072333;28;20475;-75
2022/07/11 01:03:52;;;;;;;3.60;2.70;;;;;;;;;;5061434;28;20404;-76
2022/07/11 01:06:20;;;;;;;6.10;3.40;;;;;;;;;;5062747;28;20463;-75
2022/07/11 01:08:47;;;;;;;3.17;2.80;;;;;;;;;;5051191;28;20449;-74
2022/07/11 01:11:17;;;;;;;2.97;2.43;;;;;;;;;;5050433;28;20564;-76
2022/07/11 01:13:44;;;;;;;6.57;3.03;;;;;;;;;;5053214;28;20826;-75
2022/07/11 01:16:13;;;;;;;6.67;3.80;;;;;;;;;;5055688;28;20564;-76
2022/07/11 01:18:41;;;;;;;2.93;2.53;;;;;;;;;;5058523;28;20487;-76
2022/07/11 01:21:11;;;;;;;4.87;3.70;;;;;;;;;;5077546;28;20509;-77
2022/07/11 01:23:40;;;;;;;3.27;2.80;;;;;;;;;;5077417;28;20430;-75
2022/07/11 01:26:07;;;;;;;5.47;3.37;;;;;;;;;;5065557;28;20466;-74
2022/07/11 01:28:34;;;;;;;5.37;3.10;;;;;;;;;;5062967;28;20443;-76
2022/07/11 01:31:02;;;;;;;3.53;3.23;;;;;;;;;;5055715;28;20420;-75
2022/07/11 01:33:29;;;;;;;5.70;3.27;;;;;;;;;;5054284;28;20439;-75
2022/07/11 01:35:56;;;;;;;6.07;3.50;;;;;;;;;;5054948;28;20515;-75
2022/07/11 01:38:23;;;;;;;7.27;3.40;;;;;;;;;;5055533;28;20482;-75
2022/07/11 01:40:52;;;;;;;5.43;3.10;;;;;;;;;;5056726;28;20444;-76
2022/07/11 01:43:19;;;;;;;3.53;2.57;;;;;;;;;;5077034;28;20440;-77
2022/07/11 01:45:46;;;;;;;5.30;3.67;;;;;;;;;;5076931;28;20433;-75
2022/07/11 01:48:14;;;;;;;3.60;3.10;;;;;;;;;;5064608;28;20412;-76
2022/07/11 01:50:41;;;;;;;3.50;3.10;;;;;;;;;;5062654;28;20425;-75
2022/07/11 01:53:08;;;;;;;4.53;2.90;;;;;;;;;;5055620;28;20425;-77
2022/07/11 01:55:35;;;;;;;6.13;3.20;;;;;;;;;;5053566;28;20434;-76
2022/07/11 01:58:04;;;;;;;3.67;2.70;;;;;;;;;;5054435;28;20475;-78
2022/07/11 02:00:31;;;;;;;6.00;3.40;;;;;;;;;;5055304;28;20444;-76
2022/07/11 02:02:58;;;;;;;6.20;3.20;;;;;;;;;;5055863;28;20457;-77
2022/07/11 02:05:25;;;;;;;5.50;3.43;;;;;;;;;;5076396;28;20943;-76
2022/07/11 02:10:33;;;;;;;6.27;3.50;;;;;;;;;;5064383;28;20533;-77
2022/07/11 02:13:01;;;;;;;8.40;3.40;;;;;;;;;;5066037;28;20431;-76
2022/07/11 02:15:30;;;;;;;8.07;3.70;;;;;;;;;;5070814;28;20422;-76
2022/07/11 02:17:58;;;;;;;4.10;3.37;;;;;;;;;;5072180;28;20494;-76
2022/07/11 02:20:26;;;;;;;4.80;3.77;;;;;;;;;;5072970;28;20423;-75
2022/07/11 02:22:54;;;;;;;4.10;3.40;;;;;;;;;;5074504;28;20501;-75
2022/07/11 02:25:22;;;;;;;5.63;4.10;;;;;;;;;;5073629;28;20984;-76
2022/07/11 02:27:51;;;;;;;7.70;4.30;;;;;;;;;;5076224;28;20418;-76
2022/07/11 02:30:18;;;;;;;4.77;3.90;;;;;;;;;;5076260;28;20443;-77
2022/07/11 02:32:46;;;;;;;7.13;3.80;;;;;;;;;;5064325;28;20411;-77
2022/07/11 02:35:16;;;;;;;6.97;4.73;;;;;;;;;;5063473;28;20727;-75
2022/07/11 02:37:44;;;;;;;5.83;4.20;;;;;;;;;;5072621;28;20488;-76
2022/07/11 02:40:12;;;;;;;6.70;4.33;;;;;;;;;;5071936;28;20412;-76
2022/07/11 02:42:39;;;;;;;5.27;4.60;;;;;;;;;;5072679;28;20451;-75
2022/07/11 02:45:06;;;;;;;5.00;4.50;;;;;;;;;;5074274;28;21026;-75
2022/07/11 02:47:34;;;;;;;6.10;3.83;;;;;;;;;;5073492;28;20878;-77
2022/07/11 02:50:02;;;;;;;7.73;4.70;;;;;;;;;;5075633;28;20829;-76
2022/07/11 02:52:30;;;;;;;5.33;4.27;;;;;;;;;;5075798;28;20420;-75
2022/07/11 02:54:58;;;;;;;7.77;4.97;;;;;;;;;;5063817;28;20453;-75
2022/07/11 02:57:26;;;;;;;7.07;4.33;;;;;;;;;;5061336;28;20443;-75
2022/07/11 02:59:54;;;;;;;7.97;4.17;;;;;;;;;;5071729;28;20584;-76
2022/07/11 03:02:21;;;;;;;8.70;4.30;;;;;;;;;;5072388;28;20509;-75
2022/07/11 03:04:48;;;;;;;4.83;4.33;;;;;;;;;;5073769;28;20463;-75
2022/07/11 03:07:17;;;;;;;7.87;4.80;;;;;;;;;;5073982;28;20418;-75
2022/07/11 03:09:44;;;;;;;11.33;4.87;;;;;;;;;;5073138;28;20503;-76
2022/07/11 03:12:11;;;;;;;9.00;4.90;;;;;;;;;;5075189;28;20985;-75
2022/07/11 03:14:38;;;;;;;6.90;4.33;;;;;;;;;;5075208;28;20456;-75
2022/07/11 03:17:06;;;;;;;7.60;4.80;;;;;;;;;;5063893;28;20415;-78
2022/07/11 03:19:33;;;;;;;5.60;5.10;;;;;;;;;;5060989;28;20482;-75
2022/07/11 03:22:00;;;;;;;9.23;4.90;;;;;;;;;;5070665;28;20499;-75
2022/07/11 03:24:29;;;;;;;5.60;3.90;;;;;;;;;;5072347;28;20440;-75
2022/07/11 03:26:56;;;;;;;5.43;4.40;;;;;;;;;;5073038;28;20511;-77
2022/07/11 03:29:24;;;;;;;6.23;4.33;;;;;;;;;;5073284;28;20509;-75
2022/07/11 03:31:51;;;;;;;6.63;4.67;;;;;;;;;;5072457;28;20432;-75
2022/07/11 03:34:18;;;;;;;7.93;4.93;;;;;;;;;;5075055;28;20931;-74
2022/07/11 03:36:46;;;;;;;9.13;4.90;;;;;;;;;;5074069;28;20442;-75
2022/07/11 03:39:14;;;;;;;6.57;4.93;;;;;;;;;;5063134;28;20481;-76
2022/07/11 03:41:43;;;;;;;6.30;4.80;;;;;;;;;;5060540;28;20437;-75
2022/07/11 03:44:10;;;;;;;5.60;5.00;;;;;;;;;;5053079;28;20437;-75
2022/07/11 03:46:38;;;;;;;6.33;4.90;;;;;;;;;;5051796;28;20456;-75
2022/07/11 03:49:05;;;;;;;7.50;4.90;;;;;;;;;;5052652;28;20453;-75
2022/07/11 03:51:32;;;;;;;5.03;4.40;;;;;;;;;;5053180;28;20445;-75
2022/07/11 03:54:00;;;;;;;5.43;4.57;;;;;;;;;;5054250;28;20433;-76
2022/07/11 03:56:27;;;;;;;7.97;5.23;;;;;;;;;;5074481;28;20510;-74
2022/07/11 03:58:55;;;;;;;6.90;4.80;;;;;;;;;;5074283;28;20531;-76
2022/07/11 04:01:23;;;;;;;9.27;4.90;;;;;;;;;;5062768;28;20429;-77
2022/07/11 04:03:50;;;;;;;7.67;5.10;;;;;;;;;;5061771;28;20440;-77
2022/07/11 04:06:17;;;;;;;5.53;4.77;;;;;;;;;;5052821;28;20464;-75
2022/07/11 04:08:44;;;;;;;6.50;4.70;;;;;;;;;;5051247;28;20477;-74
2022/07/11 04:11:12;;;;;;;5.73;5.20;;;;;;;;;;5051946;28;20446;-75
2022/07/11 04:13:39;;;;;;;7.80;5.20;;;;;;;;;;5052756;28;20439;-76
2022/07/11 04:16:08;;;;;;;8.93;4.77;;;;;;;;;;5053811;28;20471;-76
2022/07/11 04:18:35;;;;;;;12.97;4.50;;;;;;;;;;5074147;28;20935;-75
2022/07/11 04:21:02;;;;;;;5.23;4.10;;;;;;;;;;5074012;28;20526;-77
2022/07/11 04:23:29;;;;;;;8.13;5.40;;;;;;;;;;5062925;28;20424;-75
2022/07/11 04:25:57;;;;;;;9.67;5.00;;;;;;;;;;5062681;28;20427;-78
2022/07/11 04:28:24;;;;;;;7.07;4.60;;;;;;;;;;5069242;28;20441;-75
2022/07/11 04:30:51;;;;;;;5.73;5.20;;;;;;;;;;5071342;28;20824;-76
2022/07/11 04:33:19;;;;;;;7.77;5.07;;;;;;;;;;5071487;28;20445;-77
2022/07/11 04:35:47;;;;;;;7.77;4.80;;;;;;;;;;5072045;28;20474;-78
2022/07/11 04:38:14;;;;;;;7.50;4.20;;;;;;;;;;5071017;28;20484;-76
2022/07/11 04:40:41;;;;;;;6.57;4.47;;;;;;;;;;5073892;28;20533;-80
2022/07/11 04:43:08;;;;;;;6.50;4.67;;;;;;;;;;5073858;28;20515;-76
2022/07/11 04:45:35;;;;;;;6.20;4.47;;;;;;;;;;5065557;28;20419;-78
2022/07/11 04:48:03;;;;;;;8.00;5.10;;;;;;;;;;5059119;28;20407;-75
2022/07/11 04:50:31;;;;;;;7.87;4.90;;;;;;;;;;5055243;28;20433;-76
2022/07/11 04:52:58;;;;;;;7.87;5.00;;;;;;;;;;5051189;28;20731;-75
2022/07/11 04:55:26;;;;;;;11.40;5.00;;;;;;;;;;5050904;28;20505;-75
2022/07/11 04:57:53;;;;;;;10.03;5.10;;;;;;;;;;5051646;28;20421;-75
2022/07/11 05:00:20;;;;;;;6.77;4.63;;;;;;;;;;5051713;28;20813;-78
2022/07/11 05:02:48;;;;;;;5.83;5.07;;;;;;;;;;5069608;28;20969;-77
2022/07/11 05:05:15;;;;;;;5.13;4.13;;;;;;;;;;5073282;28;20456;-76
2022/07/11 05:07:44;;;;;;;5.60;4.13;;;;;;;;;;5066697;28;20521;-75
2022/07/11 05:10:11;;;;;;;4.90;4.40;;;;;;;;;;5062086;28;20437;-76
2022/07/11 05:12:38;;;;;;;5.47;3.97;;;;;;;;;;5065808;28;20450;-75
2022/07/11 05:15:06;;;;;;;5.23;4.63;;;;;;;;;;5071126;28;20762;-75
2022/07/11 05:17:33;;;;;;;7.07;4.20;;;;;;;;;;5070522;28;20529;-77
2022/07/11 05:20:00;;;;;;;5.83;3.70;;;;;;;;;;5070887;28;20454;-76
2022/07/11 05:22:27;;;;;;;7.37;4.77;;;;;;;;;;5071774;28;20530;-77
2022/07/11 05:24:56;;;;;;;6.23;4.17;;;;;;;;;;5072250;28;20446;-77
2022/07/11 05:27:23;;;;;;;4.93;4.40;;;;;;;;;;5073292;28;20427;-75
2022/07/11 05:29:53;;;;;;;8.73;5.57;;;;;;;;;;5067011;28;20417;-75
2022/07/11 05:32:20;;;;;;;5.73;4.30;;;;;;;;;;5060254;28;20413;-76
2022/07/11 05:34:47;;;;;;;6.57;3.80;;;;;;;;;;5055863;28;20411;-77
2022/07/11 05:37:15;;;;;;;4.93;3.77;;;;;;;;;;5051047;28;20500;-77
2022/07/11 05:39:43;;;;;;;5.00;3.77;;;;;;;;;;5050232;28;20500;-78
2022/07/11 05:42:11;;;;;;;5.17;3.30;;;;;;;;;;5050948;28;20444;-78
2022/07/11 05:44:38;;;;;;;4.83;3.77;;;;;;;;;;5051294;28;20455;-77
2022/07/11 05:47:06;;;;;;;8.43;4.20;;;;;;;;;;5066834;28;20463;-76
2022/07/11 05:49:33;;;;;;;8.90;4.87;;;;;;;;;;5072835;28;20924;-76
2022/07/11 05:52:01;;;;;;;9.50;5.60;;;;;;;;;;5067750;28;20446;-75
2022/07/11 05:54:29;;;;;;;5.20;3.60;;;;;;;;;;5060392;28;20445;-75
2022/07/11 05:56:56;;;;;;;7.17;3.97;;;;;;;;;;5062248;28;20452;-75
2022/07/11 05:59:24;;;;;;;7.10;5.50;;;;;;;;;;5071477;28;20570;-75
2022/07/11 06:01:52;;;;;;;6.20;4.80;;;;;;;;;;5074025;28;20440;-74
2022/07/11 06:04:19;;;;;;;7.40;4.30;;;;;;;;;;5074600;28;20443;-74
2022/07/11 06:06:46;;;;;;;6.80;4.27;;;;;;;;;;5075093;28;20617;-74
2022/07/11 06:09:12;;;;;;;6.60;4.50;;;;;;;;;;5075500;28;20455;-74
2022/07/11 06:11:39;;;;;;;7.43;4.20;;;;;;;;;;5076631;28;20512;-75
2022/07/11 06:14:07;;;;;;;5.60;4.50;;;;;;;;;;5073733;28;20474;-74
2022/07/11 06:16:35;;;;;;;3.80;3.40;;;;;;;;;;5063381;28;20452;-74
2022/07/11 06:19:03;;;;;;;5.53;4.23;;;;;;;;;;5066013;28;20458;-75
2022/07/11 06:21:30;;;;;;;5.13;4.50;;;;;;;;;;5074194;28;20440;-76
2022/07/11 06:23:57;;;;;;;6.23;4.63;;;;;;;;;;5073431;28;20411;-75
2022/07/11 06:26:25;;;;;;;6.60;4.67;;;;;;;;;;5074126;28;20525;-76
2022/07/11 06:28:52;;;;;;;6.60;4.90;;;;;;;;;;5074346;28;20454;-75
2022/07/11 06:31:19;;;;;;;10.73;5.90;;;;;;;;;;5073485;28;20865;-76
2022/07/11 06:33:54;;;;;;;6.40;4.80;;;;;;;;;;5076438;28;20504;-75
2022/07/11 06:36:22;;;;;;;4.90;4.40;;;;;;;;;;5063663;28;20435;-76
2022/07/11 06:38:50;;;;;;;11.60;6.70;;;;;;;;;;5065160;28;20456;-74
2022/07/11 06:41:17;;;;;;;9.47;6.47;;;;;;;;;;5071967;28;20811;-74
2022/07/11 06:43:47;;;;;;;7.60;5.70;;;;;;;;;;5072856;28;20946;-75
2022/07/11 06:46:14;;;;;;;7.30;5.73;;;;;;;;;;5074138;28;20554;-75
2022/07/11 06:48:41;;;;;;;10.57;6.20;;;;;;;;;;5074214;28;20795;-75
2022/07/11 06:51:10;;;;;;;7.20;5.50;;;;;;;;;;5073409;28;20812;-75
2022/07/11 06:53:37;;;;;;;7.30;6.43;;;;;;;;;;5075744;28;20443;-76
2022/07/11 06:56:05;;;;;;;7.00;6.30;;;;;;;;;;5075753;28;20539;-78
2022/07/11 06:58:32;;;;;;;5.93;5.33;;;;;;;;;;5064610;28;20441;-74
2022/07/11 07:01:00;;;;;;;8.07;6.70;;;;;;;;;;5065229;28;20444;-75
2022/07/11 07:03:28;;;;;;;9.00;6.93;;;;;;;;;;5071342;28;20444;-74
2022/07/11 07:05:55;;;;;;;9.50;7.63;;;;;;;;;;5072633;28;20460;-74
2022/07/11 07:08:25;;;;;;;10.47;9.37;;;;;;;;;;5071804;28;20487;-75
2022/07/11 07:10:52;;;;;;;9.03;8.13;;;;;;;;;;5073301;28;20440;-75
2022/07/11 07:13:20;;;;;;;10.00;8.37;;;;;;;;;;5073104;28;20432;-74
2022/07/11 07:15:47;;;;;;;13.27;8.60;;;;;;;;;;5075283;28;20470;-75
2022/07/11 07:18:15;;;;;;;8.87;8.00;;;;;;;;;;5075359;28;20546;-74
2022/07/11 07:20:42;;;;;;;9.10;8.17;;;;;;;;;;5067076;28;21061;-74
2022/07/11 07:23:09;;;;;;;8.73;7.77;;;;;;;;;;5062484;28;20786;-74
2022/07/11 07:25:38;;;;;;;8.50;7.70;;;;;;;;;;5068956;28;20455;-73
2022/07/11 07:28:05;;;;;;;7.27;6.67;;;;;;;;;;5072938;28;20917;-76
2022/07/11 07:30:33;;;;;;;10.23;7.90;;;;;;;;;;5072092;28;20444;-76
2022/07/11 07:33:00;;;;;;;7.80;7.10;;;;;;;;;;5072883;28;20955;-75
2022/07/11 07:35:28;;;;;;;8.07;7.00;;;;;;;;;;5072518;28;20479;-75
2022/07/11 07:37:55;;;;;;;8.53;7.70;;;;;;;;;;5074157;28;20796;-78
2022/07/11 07:40:22;;;;;;;8.97;6.70;;;;;;;;;;5074859;28;20483;-76
2022/07/11 07:42:51;;;;;;;7.97;6.00;;;;;;;;;;5069545;28;20944;-80
2022/07/11 07:45:18;;;;;;;8.40;7.03;;;;;;;;;;5061302;28;20449;-79
2022/07/11 07:47:45;;;;;;;7.80;7.10;;;;;;;;;;5058730;28;20438;-77
2022/07/11 07:50:12;;;;;;;7.10;6.43;;;;;;;;;;5052374;28;20445;-78
2022/07/11 07:52:40;;;;;;;7.90;6.40;;;;;;;;;;5051831;28;20464;-76
2022/07/11 07:55:08;;;;;;;8.13;6.40;;;;;;;;;;5052462;28;20459;-76
2022/07/11 07:57:35;;;;;;;7.33;6.63;;;;;;;;;;5052816;28;20548;-76
2022/07/11 08:02:45;;;;;;;9.33;8.37;;;;;;;;;;5074071;28;20769;-76
2022/07/11 08:05:12;;;;;;;9.13;8.17;;;;;;;;;;5070550;28;20496;-77
2022/07/11 08:07:39;;;;;;;8.73;7.93;;;;;;;;;;5062058;28;20429;-76
2022/07/11 08:10:07;;;;;;;9.07;8.37;;;;;;;;;;5063747;28;20438;-76
2022/07/11 08:12:34;;;;;;;9.83;8.93;;;;;;;;;;5071789;28;20527;-75
2022/07/11 08:15:01;;;;;;;12.13;10.33;;;;;;;;;;5070935;28;20466;-75
2022/07/11 08:17:30;;;;;;;12.63;11.43;;;;;;;;;;5072223;28;20496;-75
2022/07/11 08:19:57;;;;;;;12.17;11.00;;;;;;;;;;5072524;28;21015;-75
2022/07/11 08:22:25;;;;;;;11.93;10.70;;;;;;;;;;5072599;28;20813;-76
2022/07/11 08:24:52;;;;;;;12.27;10.23;;;;;;;;;;5074871;28;20953;-75
2022/07/11 08:27:20;;;;;;;11.30;10.10;;;;;;;;;;5072307;28;20440;-76
2022/07/11 08:29:48;;;;;;;12.60;11.23;;;;;;;;;;5062005;28;20432;-76
2022/07/11 08:32:15;;;;;;;11.47;10.47;;;;;;;;;;5062750;28;20445;-75
2022/07/11 08:34:43;;;;;;;11.50;10.50;;;;;;;;;;5070557;28;20443;-75
2022/07/11 08:37:10;;;;;;;12.27;11.17;;;;;;;;;;5070822;28;20436;-75
2022/07/11 08:39:38;;;;;;;12.67;11.37;;;;;;;;;;5071486;28;20572;-76
2022/07/11 08:42:05;;;;;;;12.27;11.10;;;;;;;;;;5072096;28;20445;-76
2022/07/11 08:44:33;;;;;;;12.63;11.33;;;;;;;;;;5072081;28;20559;-76
2022/07/11 08:47:00;;;;;;;14.53;10.90;;;;;;;;;;5073827;28;20440;-77
2022/07/11 08:49:28;;;;;;;12.40;11.20;;;;;;;;;;5073739;28;20443;-75
2022/07/11 08:51:57;;;;;;;10.70;9.80;;;;;;;;;;5061312;28;20889;-74
2022/07/11 08:54:24;;;;;;;10.57;9.67;;;;;;;;;;5060141;28;20933;-75
2022/07/11 08:56:54;;;;;;;9.73;8.90;;;;;;;;;;5070691;28;20809;-76
2022/07/11 08:59:21;;;;;;;8.70;7.83;;;;;;;;;;5070590;28;20782;-76
2022/07/11 09:01:51;;;;;;;8.93;8.10;;;;;;;;;;5071389;28;20443;-74
2022/07/11 09:04:18;;;;;;;12.53;8.27;;;;;;;;;;5070663;28;20466;-75
2022/07/11 09:06:46;;;;;;;10.13;9.13;;;;;;;;;;5071616;28;20558;-74
2022/07/11 09:09:14;;;;;;;10.60;9.50;;;;;;;;;;5073563;28;20535;-75
2022/07/11 09:11:56;;;;;;;10.67;9.67;;;;;;;;;;5073827;28;20432;-77
2022/07/11 09:14:25;;;;;;;9.90;8.90;;;;;;;;;;5059019;28;20528;-77
2022/07/11 09:16:54;;;;;;;10.07;9.10;;;;;;;;;;5060011;28;20467;-77
2022/07/11 09:19:22;;;;;;;9.20;8.40;;;;;;;;;;5070485;28;20432;-78
2022/07/11 09:27:21;;;;;;;4.93;4.43;;;;;;;;;;5071443;28;20428;-75
2022/07/11 09:29:48;;;;;;;4.60;3.90;;;;;;;;;;5071854;28;20474;-76
2022/07/11 09:32:15;;;;;;;4.30;3.90;;;;;;;;;;5073227;28;20447;-78
2022/07/11 09:35:00;;;;;;;5.13;4.00;;;;;;;;;;5072693;28;20428;-79
2022/07/11 09:37:43;;;;;;;5.23;4.47;;;;;;;;;;5063836;28;20968;-77
2022/07/11 09:40:13;;;;;;;4.90;4.50;;;;;;;;;;5061224;28;20889;-80
2022/07/11 09:42:47;;;;;;;3.70;3.40;;;;;;;;;;5054846;28;20445;-79
2022/07/11 09:45:15;;;;;;;4.43;3.50;;;;;;;;;;5054192;28;20463;-78
2022/07/11 09:47:45;;;;;;;4.03;3.63;;;;;;;;;;5055300;28;20480;-78
2022/07/11 09:50:13;;;;;;;5.90;3.70;;;;;;;;;;5055806;28;20452;-78
2022/07/11 09:52:43;;;;;;;3.37;3.07;;;;;;;;;;5072397;28;20936;-81
2022/07/11 09:55:12;;;;;;;4.87;3.57;;;;;;;;;;5076040;28;20464;-79
2022/07/11 09:57:40;;;;;;;5.00;4.60;;;;;;;;;;5073071;28;21728;-83
2022/07/11 10:00:09;;;;;;;4.30;3.97;;;;;;;;;;5064771;28;20486;-78
2022/07/11 10:02:36;;;;;;;3.80;3.50;;;;;;;;;;5061454;28;20484;-84
2022/07/11 10:05:04;;;;;;;3.90;3.60;;;;;;;;;;5054753;28;20457;-82
2022/07/11 10:07:31;;;;;;;8.17;4.80;;;;;;;;;;5052629;28;20527;-77
2022/07/11 10:09:59;;;;;;;6.17;4.37;;;;;;;;;;5053653;28;20484;-84
2022/07/11 10:12:29;;;;;;;5.67;5.17;;;;;;;;;;5053874;28;21012;-76
2022/07/11 10:14:57;;;;;;;6.30;5.70;;;;;;;;;;5069049;28;20841;-77
2022/07/11 10:17:28;;;;;;;7.50;6.80;;;;;;;;;;5076492;28;20444;-77
2022/07/11 10:19:58;;;;;;;6.90;6.20;;;;;;;;;;5072620;28;20437;-77
2022/07/11 10:22:28;;;;;;;7.40;6.70;;;;;;;;;;5063724;28;20428;-77
2022/07/11 10:24:58;;;;;;;7.10;6.23;;;;;;;;;;5065101;28;20458;-77
2022/07/11 10:27:31;;;;;;;6.23;5.63;;;;;;;;;;5074370;28;20471;-77
2022/07/11 10:29:58;;;;;;;6.27;5.67;;;;;;;;;;5073234;28;20952;-77
2022/07/11 10:32:25;;;;;;;6.43;5.80;;;;;;;;;;5073869;28;20574;-76
2022/07/11 10:35:07;;;;;;;8.07;7.27;;;;;;;;;;5074425;28;20464;-76
2022/07/11 10:37:49;;;;;;;5.80;5.40;;;;;;;;;;5074108;28;20476;-77
2022/07/11 10:40:17;;;;;;;6.77;5.90;;;;;;;;;;5074843;28;20484;-77
2022/07/11 10:42:47;;;;;;;6.40;5.83;;;;;;;;;;5071436;28;20429;-75
2022/07/11 10:45:14;;;;;;;8.37;7.67;;;;;;;;;;5061767;28;20815;-77
2022/07/11 10:47:42;;;;;;;8.93;8.23;;;;;;;;;;5065161;28;20800;-77
2022/07/11 10:50:15;;;;;;;9.37;8.50;;;;;;;;;;5073609;28;20984;-80
2022/07/11 10:52:43;;;;;;;8.53;7.73;;;;;;;;;;5073033;28;21018;-78
2022/07/11 10:55:20;;;;;;;9.03;8.30;;;;;;;;;;5073688;28;20468;-76
2022/07/11 10:57:52;;;;;;;10.90;10.00;;;;;;;;;;5074254;28;20543;-76
2022/07/11 11:00:21;;;;;;;11.37;10.47;;;;;;;;;;5074708;28;20478;-76
2022/07/11 11:03:04;;;;;;;10.70;9.80;;;;;;;;;;5075700;28;20444;-76
2022/07/11 11:05:48;;;;;;;11.33;10.33;;;;;;;;;;5068303;28;20456;-75
2022/07/11 11:08:30;;;;;;;9.10;8.40;;;;;;;;;;5062344;28;20440;-75
2022/07/11 11:10:57;;;;;;;8.80;7.90;;;;;;;;;;5069438;28;20432;-75
2022/07/11 11:13:26;;;;;;;8.47;7.73;;;;;;;;;;5073316;28;20444;-75
2022/07/11 11:15:54;;;;;;;9.10;8.30;;;;;;;;;;5072389;28;20473;-75
2022/07/11 11:18:36;;;;;;;9.10;8.13;;;;;;;;;;5073509;28;20436;-75
2022/07/11 11:21:18;;;;;;;11.57;10.57;;;;;;;;;;5072516;28;20842;-75
2022/07/11 11:23:46;;;;;;;11.60;10.53;;;;;;;;;;5074918;28;20440;-75
2022/07/11 11:26:14;;;;;;;12.73;11.73;;;;;;;;;;5075070;28;20554;-75
2022/07/11 11:28:56;;;;;;;12.93;11.73;;;;;;;;;;5063930;28;20439;-75
2022/07/11 11:31:25;;;;;;;15.50;14.10;;;;;;;;;;5061261;28;20432;-75
2022/07/11 11:33:52;;;;;;;16.77;15.17;;;;;;;;;;5053739;28;20492;-75
2022/07/11 11:36:21;;;;;;;16.00;14.60;;;;;;;;;;5050354;28;20479;-75
2022/07/11 11:38:48;;;;;;;15.40;14.17;;;;;;;;;;5052619;28;20451;-75
2022/07/11 11:41:16;;;;;;;14.67;13.37;;;;;;;;;;5052997;28;20472;-75
2022/07/11 11:43:45;;;;;;;16.20;14.80;;;;;;;;;;5055613;28;20866;-75
2022/07/11 11:46:13;;;;;;;15.40;14.10;;;;;;;;;;5074733;28;20460;-75
2022/07/11 11:48:45;;;;;;;14.50;13.40;;;;;;;;;;5074930;28;20486;-75
2022/07/11 11:51:13;;;;;;;12.70;11.50;;;;;;;;;;5063172;28;20436;-75
2022/07/11 11:53:42;;;;;;;11.00;10.10;;;;;;;;;;5060538;28;20448;-75
2022/07/11 11:56:17;;;;;;;12.20;11.30;;;;;;;;;;5051438;28;20467;-76
2022/07/11 11:58:45;;;;;;;11.67;10.77;;;;;;;;;;5051295;28;20519;-75
2022/07/11 12:01:12;;;;;;;14.33;13.00;;;;;;;;;;5052041;28;20481;-75
2022/07/11 12:03:54;;;;;;;14.80;11.90;;;;;;;;;;5052772;28;20539;-75
2022/07/11 12:06:22;;;;;;;12.60;11.60;;;;;;;;;;5056993;28;20475;-75
2022/07/11 12:08:50;;;;;;;12.70;11.60;;;;;;;;;;5073591;28;20440;-79
2022/07/11 12:11:18;;;;;;;12.63;11.53;;;;;;;;;;5074133;28;20440;-77
2022/07/11 12:13:45;;;;;;;13.13;12.07;;;;;;;;;;5061691;28;20429;-78
2022/07/11 12:18:57;;;;;;;10.43;9.63;;;;;;;;;;5049424;28;20863;-77
2022/07/11 12:21:24;;;;;;;10.50;9.60;;;;;;;;;;5051096;28;20845;-77
2022/07/11 12:23:52;;;;;;;11.60;9.50;;;;;;;;;;5051774;28;20448;-79
2022/07/11 12:26:19;;;;;;;9.63;8.83;;;;;;;;;;5052053;28;20461;-78
2022/07/11 12:29:02;;;;;;;10.30;9.50;;;;;;;;;;5058776;28;20556;-78
2022/07/11 12:31:41;;;;;;;9.83;9.13;;;;;;;;;;5052296;28;20570;-79
2022/07/11 12:34:09;;;;;;;9.93;9.03;;;;;;;;;;5062761;28;20955;-78
2022/07/11 12:36:38;;;;;;;9.87;9.17;;;;;;;;;;5071002;28;20624;-78
2022/07/11 12:39:05;;;;;;;10.67;9.77;;;;;;;;;;5070909;28;20467;-78
2022/07/11 12:41:33;;;;;;;10.70;9.80;;;;;;;;;;5071426;28;20484;-77
2022/07/11 12:46:42;;;;;;;11.23;10.33;;;;;;;;;;5072204;28;20471;-79
2022/07/11 12:49:11;;;;;;;9.17;8.47;;;;;;;;;;5073621;28;20451;-78
2022/07/11 12:51:40;;;;;;;10.30;9.37;;;;;;;;;;5069366;28;20471;-78
2022/07/11 12:54:08;;;;;;;9.37;8.53;;;;;;;;;;5061128;28;21235;-80
2022/07/11 12:56:36;;;;;;;8.73;8.03;;;;;;;;;;5055146;28;20449;-79
2022/07/11 12:59:03;;;;;;;10.60;9.70;;;;;;;;;;5051393;28;20441;-80
2022/07/11 13:01:31;;;;;;;10.97;9.80;;;;;;;;;;5049439;28;20472;-75
2022/07/11 13:03:59;;;;;;;10.53;9.70;;;;;;;;;;5050137;28;20528;-75
2022/07/11 13:09:08;;;;;;;11.80;10.80;;;;;;;;;;5066706;28;20544;-75
2022/07/11 13:11:36;;;;;;;11.53;10.43;;;;;;;;;;5074111;28;20432;-75
2022/07/11 13:15:08;;;;;;;11.83;10.73;;;;;;;;;;5069740;28;20433;-75
2022/07/11 13:16:50;;;;;;;11.57;10.43;;;;;;;;;;5059473;28;20437;-76
2022/07/11 13:19:17;;;;;;;11.50;10.40;;;;;;;;;;5057928;28;20844;-75
2022/07/11 13:21:46;;;;;;;10.00;9.13;;;;;;;;;;5051225;28;20499;-76
2022/07/11 13:24:13;;;;;;;11.20;10.20;;;;;;;;;;5050453;28;20445;-75
2022/07/11 13:26:40;;;;;;;10.23;9.33;;;;;;;;;;5051184;28;20457;-76
2022/07/11 13:29:08;;;;;;;10.30;9.47;;;;;;;;;;5051737;28;20527;-76
2022/07/11 13:31:35;;;;;;;11.13;10.03;;;;;;;;;;5065188;28;20457;-75
2022/07/11 13:34:03;;;;;;;11.03;10.03;;;;;;;;;;5073310;28;20443;-75
2022/07/11 13:36:30;;;;;;;10.30;9.40;;;;;;;;;;5070520;28;20456;-76
2022/07/11 13:38:58;;;;;;;9.60;8.70;;;;;;;;;;5059530;28;20433;-75
2022/07/11 13:41:26;;;;;;;10.30;9.50;;;;;;;;;;5064032;28;21023;-75
2022/07/11 13:43:53;;;;;;;10.73;9.90;;;;;;;;;;5070481;28;20880;-75
2022/07/11 13:46:20;;;;;;;10.83;9.90;;;;;;;;;;5069906;28;20460;-75
2022/07/11 13:48:47;;;;;;;9.60;8.80;;;;;;;;;;5071110;28;20442;-75
2022/07/11 13:51:14;;;;;;;11.33;10.33;;;;;;;;;;5071488;28;20531;-75
2022/07/11 13:53:42;;;;;;;10.70;9.80;;;;;;;;;;5071529;28;20466;-74
2022/07/11 13:56:10;;;;;;;10.77;9.77;;;;;;;;;;5072853;28;20526;-75
2022/07/11 13:58:38;;;;;;;12.13;11.13;;;;;;;;;;5072700;28;20531;-74
2022/07/11 14:01:05;;;;;;;11.00;10.00;;;;;;;;;;5060127;28;20594;-75
2022/07/11 14:03:32;;;;;;;11.60;10.57;;;;;;;;;;5060491;28;20516;-74
2022/07/11 14:05:59;;;;;;;11.00;10.00;;;;;;;;;;5069763;28;20551;-76
2022/07/11 14:08:26;;;;;;;10.90;10.10;;;;;;;;;;5066036;28;20905;-74
2022/07/11 14:10:54;;;;;;;9.73;8.93;;;;;;;;;;5067222;28;20452;-73
2022/07/11 14:13:22;;;;;;;9.60;8.80;;;;;;;;;;5067160;28;21014;-74
2022/07/11 14:15:50;;;;;;;10.50;9.60;;;;;;;;;;5067136;28;20471;-72
2022/07/11 14:18:17;;;;;;;9.60;8.80;;;;;;;;;;5059952;28;20910;-74
2022/07/11 14:20:44;;;;;;;9.30;8.60;;;;;;;;;;5056567;28;20432;-74
2022/07/11 14:23:11;;;;;;;10.17;9.17;;;;;;;;;;5067549;28;20876;-74
2022/07/11 14:25:39;;;;;;;10.10;9.20;;;;;;;;;;5070388;28;20464;-75
2022/07/11 14:28:06;;;;;;;10.70;9.80;;;;;;;;;;5069764;28;20444;-75
2022/07/11 14:30:35;;;;;;;10.43;9.53;;;;;;;;;;5071283;28;20779;-78
2022/07/11 14:33:05;;;;;;;11.00;10.10;;;;;;;;;;5072781;28;20963;-79
2022/07/11 14:35:32;;;;;;;11.43;10.33;;;;;;;;;;5075875;28;20471;-77
2022/07/11 14:37:59;;;;;;;10.57;9.77;;;;;;;;;;5075931;28;21166;-77
2022/07/11 14:40:27;;;;;;;12.10;11.10;;;;;;;;;;5067965;28;20463;-75
2022/07/11 14:42:54;;;;;;;10.23;9.40;;;;;;;;;;5065058;28;20472;-76
2022/07/11 14:45:22;;;;;;;11.67;10.77;;;;;;;;;;5069396;28;20456;-78
2022/07/11 14:47:51;;;;;;;10.30;9.50;;;;;;;;;;5073784;28;20432;-76
2022/07/11 14:50:19;;;;;;;10.83;10.00;;;;;;;;;;5073123;28;20432;-76
2022/07/11 14:52:46;;;;;;;11.53;10.53;;;;;;;;;;5073910;28;20444;-76
2022/07/11 14:55:13;;;;;;;11.70;10.80;;;;;;;;;;5074005;28;20468;-79
2022/07/11 14:57:41;;;;;;;10.00;9.10;;;;;;;;;;5075040;28;20531;-76
2022/07/11 15:00:09;;;;;;;8.67;8.00;;;;;;;;;;5075789;28;20543;-75
2022/07/11 15:05:18;;;;;;;8.27;7.40;;;;;;;;;;5063447;28;20472;-74